Time;durP1;ratioP1;P1;durP2;ratioP2;P2;SDS_P1;SDS_P2;PMS_P1;PMS_P2;Temp;Humidity;BMP_temperature;BMP_pressure;BME280_temperature;BME280_humidity;BME280_pressure;Samples;Min_cycle;Max_cycle;Signal;HPM_P1;HPM_P2
2023/05/26 00:00:24;;;;;;;10.85;7.47;;;18.30;99.90;;;;;;5078698;28;20303;-72
2023/05/26 00:03:14;;;;;;;7.57;6.80;;;18.30;99.90;;;;;;5075156;28;20227;-71
2023/05/26 00:06:04;;;;;;;8.40;6.82;;;18.20;99.90;;;;;;5080098;28;20265;-71
2023/05/26 00:08:52;;;;;;;9.63;6.45;;;18.20;99.90;;;;;;5080523;28;20215;-72
2023/05/26 00:11:41;;;;;;;7.60;6.40;;;18.30;99.90;;;;;;5073221;28;20220;-72
2023/05/26 00:14:30;;;;;;;8.02;6.82;;;18.30;99.90;;;;;;5076632;28;20603;-71
2023/05/26 00:17:19;;;;;;;7.00;6.30;;;18.40;99.90;;;;;;5080365;28;20309;-72
2023/05/26 00:20:10;;;;;;;7.18;6.32;;;18.40;99.90;;;;;;5081638;28;20357;-74
2023/05/26 00:22:59;;;;;;;10.90;6.63;;;18.20;99.90;;;;;;5106539;27;20550;-74
2023/05/26 00:25:50;;;;;;;8.70;6.03;;;18.20;99.90;;;;;;5083236;28;20211;-71
2023/05/26 00:28:39;;;;;;;10.40;6.15;;;18.10;99.90;;;;;;5075193;28;20220;-70
2023/05/26 00:31:28;;;;;;;11.18;6.38;;;18.10;99.90;;;;;;5078675;28;20455;-71
2023/05/26 00:34:18;;;;;;;7.03;5.90;;;17.90;99.90;;;;;;5077256;28;20235;-71
2023/05/26 00:37:08;;;;;;;7.78;6.38;;;17.90;99.90;;;;;;5081437;28;20230;-71
2023/05/26 00:39:57;;;;;;;7.13;6.00;;;17.70;99.90;;;;;;5078786;28;20587;-72
2023/05/26 00:42:46;;;;;;;9.40;5.90;;;17.80;99.90;;;;;;5080546;28;20223;-72
2023/05/26 00:45:36;;;;;;;7.75;6.53;;;17.80;99.90;;;;;;5078857;28;20224;-72
2023/05/26 00:48:26;;;;;;;6.88;5.97;;;17.90;99.90;;;;;;5082882;28;21103;-70
2023/05/26 00:51:15;;;;;;;9.95;6.03;;;17.80;99.90;;;;;;5072120;28;20242;-72
2023/05/26 00:54:06;;;;;;;10.07;6.25;;;17.70;99.90;;;;;;5111082;28;20709;-70
2023/05/26 00:56:56;;;;;;;10.50;6.32;;;17.70;99.90;;;;;;5076682;28;20292;-71
2023/05/26 00:59:45;;;;;;;8.70;6.20;;;17.80;99.90;;;;;;5083449;28;21134;-69
2023/05/26 01:02:35;;;;;;;9.02;6.15;;;17.70;99.90;;;;;;5081617;28;20710;-70
2023/05/26 01:05:24;;;;;;;10.38;6.10;;;17.80;99.90;;;;;;5081124;28;20230;-71
2023/05/26 01:08:15;;;;;;;7.40;6.20;;;17.80;99.90;;;;;;5073415;28;20223;-71
2023/05/26 01:11:27;;;;;;;7.45;6.25;;;17.90;99.90;;;;;;5078894;28;20746;-73
2023/05/26 01:14:21;;;;;;;9.63;5.82;;;17.90;99.90;;;;;;5105543;28;20268;-71
2023/05/26 01:17:17;;;;;;;10.18;6.30;;;17.90;99.90;;;;;;5103383;28;20258;-71
2023/05/26 01:20:15;;;;;;;7.82;6.05;;;17.90;99.90;;;;;;5077672;28;20284;-71
2023/05/26 01:23:26;;;;;;;8.60;5.90;;;17.70;99.90;;;;;;5063458;28;20215;-71
2023/05/26 01:26:37;;;;;;;8.32;5.55;;;17.80;99.90;;;;;;5109353;28;20345;-73
2023/05/26 01:29:30;;;;;;;10.93;5.95;;;17.80;99.90;;;;;;5074926;28;20722;-73
2023/05/26 01:32:20;;;;;;;9.98;6.10;;;17.60;99.90;;;;;;5083744;28;20308;-73
2023/05/26 01:35:10;;;;;;;7.20;5.90;;;17.60;99.90;;;;;;5080552;28;20509;-74
2023/05/26 01:38:00;;;;;;;9.52;5.97;;;17.60;99.90;;;;;;5080214;28;20227;-74
2023/05/26 01:40:57;;;;;;;9.95;6.30;;;17.70;99.90;;;;;;5093690;28;20219;-74
2023/05/26 01:43:52;;;;;;;11.95;6.38;;;17.60;99.90;;;;;;5077708;28;20773;-75
2023/05/26 01:46:49;;;;;;;8.07;5.90;;;17.50;99.90;;;;;;5076344;28;20288;-73
2023/05/26 01:49:44;;;;;;;7.25;5.80;;;17.50;99.90;;;;;;5080041;28;20717;-74
2023/05/26 01:52:37;;;;;;;9.27;6.00;;;17.50;99.90;;;;;;5073356;28;20305;-72
2023/05/26 01:55:27;;;;;;;7.13;6.00;;;17.50;99.90;;;;;;5078891;28;20395;-72
2023/05/26 01:58:16;;;;;;;7.30;5.85;;;17.40;99.90;;;;;;5083011;27;20770;-70
2023/05/26 02:01:06;;;;;;;11.35;6.25;;;17.40;99.90;;;;;;5082104;28;20238;-72
2023/05/26 02:03:57;;;;;;;11.75;5.95;;;17.30;99.90;;;;;;5069053;28;20235;-71
2023/05/26 02:06:46;;;;;;;9.52;5.85;;;17.40;99.90;;;;;;5085222;28;20346;-72
2023/05/26 02:09:40;;;;;;;9.60;5.75;;;17.30;99.90;;;;;;5085876;28;20296;-71
2023/05/26 02:12:29;;;;;;;10.98;5.03;;;17.20;99.90;;;;;;5083548;28;20223;-72
2023/05/26 02:15:18;;;;;;;7.13;5.13;;;17.20;99.90;;;;;;5084866;28;20837;-72
2023/05/26 02:18:07;;;;;;;11.75;5.10;;;17.20;99.90;;;;;;5079883;28;21141;-70
2023/05/26 02:20:58;;;;;;;8.60;5.35;;;17.20;99.90;;;;;;5082381;28;20334;-69
2023/05/26 02:23:47;;;;;;;9.02;5.40;;;17.20;99.90;;;;;;5075222;28;20219;-70
2023/05/26 02:26:37;;;;;;;13.65;6.30;;;17.30;99.90;;;;;;5077272;28;20223;-69
2023/05/26 02:29:27;;;;;;;8.07;5.47;;;17.20;99.90;;;;;;5087389;28;20231;-71
2023/05/26 02:32:16;;;;;;;8.68;5.65;;;17.30;99.90;;;;;;5084258;28;20687;-69
2023/05/26 02:35:06;;;;;;;9.63;5.65;;;17.40;99.90;;;;;;5078256;28;20285;-71
2023/05/26 02:37:56;;;;;;;7.50;5.32;;;17.40;99.90;;;;;;5080847;28;20263;-72
2023/05/26 02:40:45;;;;;;;9.98;5.90;;;17.40;99.90;;;;;;5104820;27;20699;-73
2023/05/26 02:43:34;;;;;;;6.30;5.20;;;17.40;99.90;;;;;;5082147;28;20756;-72
2023/05/26 02:46:26;;;;;;;10.25;6.07;;;17.50;99.90;;;;;;5082898;28;20227;-71
2023/05/26 02:49:15;;;;;;;9.10;5.30;;;17.40;99.90;;;;;;5082421;28;20231;-73
2023/05/26 02:52:06;;;;;;;8.73;5.55;;;17.40;99.90;;;;;;5078898;28;20220;-72
2023/05/26 02:54:56;;;;;;;7.00;5.55;;;17.30;99.90;;;;;;5080620;28;20281;-72
2023/05/26 02:57:45;;;;;;;10.38;5.57;;;17.20;99.90;;;;;;5079036;28;20223;-72
2023/05/26 03:00:34;;;;;;;8.85;5.35;;;17.40;99.90;;;;;;5085812;28;20232;-71
2023/05/26 03:03:23;;;;;;;7.93;5.60;;;17.30;99.90;;;;;;5113423;27;20224;-70
2023/05/26 03:06:12;;;;;;;7.72;4.93;;;17.30;99.90;;;;;;5077392;28;20318;-71
2023/05/26 03:09:04;;;;;;;12.40;6.03;;;17.10;99.90;;;;;;5080331;28;20232;-71
2023/05/26 03:12:48;;;;;;;11.95;5.63;;;17.20;99.90;;;;;;5084880;28;20223;-70
2023/05/26 03:15:54;;;;;;;14.50;6.63;;;17.20;99.90;;;;;;5081214;28;20385;-74
2023/05/26 03:18:43;;;;;;;9.63;5.70;;;17.30;99.90;;;;;;5080499;28;20224;-70
2023/05/26 03:21:33;;;;;;;9.27;5.63;;;17.40;99.90;;;;;;5080948;28;20243;-71
2023/05/26 03:24:38;;;;;;;8.77;5.53;;;17.40;99.90;;;;;;5075759;28;20714;-71
2023/05/26 03:27:28;;;;;;;9.77;6.00;;;17.60;99.90;;;;;;5082003;28;20215;-69
2023/05/26 03:30:17;;;;;;;10.05;5.25;;;17.60;99.90;;;;;;5093937;28;20219;-69
2023/05/26 03:33:09;;;;;;;11.88;5.35;;;17.60;99.90;;;;;;5088422;28;20224;-68
2023/05/26 03:35:59;;;;;;;8.57;5.57;;;17.70;99.90;;;;;;5083580;28;20341;-69
2023/05/26 03:38:49;;;;;;;9.70;5.55;;;17.70;99.90;;;;;;5080115;28;20227;-71
2023/05/26 03:41:38;;;;;;;8.02;5.38;;;17.70;99.90;;;;;;5089103;28;20212;-71
2023/05/26 03:44:28;;;;;;;7.63;5.00;;;17.80;99.90;;;;;;5082612;28;20485;-72
2023/05/26 03:47:17;;;;;;;9.40;5.20;;;17.60;99.90;;;;;;5082336;28;20215;-71
2023/05/26 03:50:11;;;;;;;8.38;4.70;;;17.70;99.90;;;;;;5079853;28;20261;-70
2023/05/26 03:53:00;;;;;;;9.80;4.90;;;17.80;99.90;;;;;;5080201;28;20714;-71
2023/05/26 03:55:50;;;;;;;5.90;4.38;;;17.70;99.90;;;;;;5081796;28;20906;-71
2023/05/26 03:58:38;;;;;;;10.35;5.15;;;17.60;99.90;;;;;;5076119;28;20270;-73
2023/05/26 04:01:29;;;;;;;13.30;5.45;;;17.60;99.90;;;;;;5077836;28;20222;-73
2023/05/26 04:04:18;;;;;;;9.63;4.78;;;17.70;99.90;;;;;;5078251;28;20281;-72
2023/05/26 04:07:08;;;;;;;9.27;4.68;;;17.80;99.90;;;;;;5076990;28;20224;-70
2023/05/26 04:09:57;;;;;;;8.05;4.78;;;17.90;99.90;;;;;;5107840;27;20226;-72
2023/05/26 04:12:46;;;;;;;8.07;4.68;;;17.90;99.90;;;;;;5086362;28;20729;-72
2023/05/26 04:15:35;;;;;;;7.53;4.22;;;18.10;99.90;;;;;;5083311;28;20337;-71
2023/05/26 04:18:25;;;;;;;9.57;4.43;;;18.10;99.90;;;;;;5077851;28;20280;-72
2023/05/26 04:21:15;;;;;;;12.13;4.35;;;18.20;99.90;;;;;;5087210;28;20223;-71
2023/05/26 04:24:06;;;;;;;9.38;4.05;;;18.20;99.90;;;;;;5081258;28;20215;-73
2023/05/26 04:26:55;;;;;;;6.80;4.78;;;18.30;99.90;;;;;;5090747;28;20775;-73
2023/05/26 04:30:03;;;;;;;8.80;4.30;;;18.50;99.90;;;;;;5077149;28;20242;-72
2023/05/26 04:33:20;;;;;;;6.07;4.13;;;18.60;99.90;;;;;;5073846;28;20826;-74
2023/05/26 04:36:26;;;;;;;7.60;4.13;;;18.60;99.90;;;;;;5080689;28;20234;-71
2023/05/26 04:39:16;;;;;;;8.90;4.50;;;18.60;99.90;;;;;;5073056;28;20247;-74
2023/05/26 04:42:06;;;;;;;7.18;4.00;;;18.60;99.90;;;;;;5081920;28;20212;-73
2023/05/26 04:44:55;;;;;;;9.32;4.20;;;18.80;99.90;;;;;;5077133;28;20618;-72
2023/05/26 04:47:46;;;;;;;8.20;3.90;;;18.80;99.90;;;;;;5070647;28;20220;-74
2023/05/26 04:50:38;;;;;;;8.80;4.05;;;18.70;99.90;;;;;;5077666;28;20915;-74
2023/05/26 04:53:30;;;;;;;8.32;3.85;;;18.50;99.90;;;;;;5071797;28;20227;-74
2023/05/26 04:56:21;;;;;;;12.00;4.28;;;18.50;99.90;;;;;;5076727;28;20261;-74
2023/05/26 04:59:17;;;;;;;8.30;3.85;;;18.70;99.90;;;;;;5079270;28;21182;-72
2023/05/26 05:02:06;;;;;;;6.47;3.80;;;18.60;99.90;;;;;;5078798;28;20230;-73
2023/05/26 05:05:04;;;;;;;7.85;4.28;;;18.70;99.90;;;;;;5081140;28;20229;-72
2023/05/26 05:07:53;;;;;;;7.10;4.20;;;18.70;99.90;;;;;;5074647;28;20223;-73
2023/05/26 05:10:42;;;;;;;8.95;3.65;;;18.80;99.90;;;;;;5077572;28;20710;-73
2023/05/26 05:13:32;;;;;;;9.07;4.18;;;19.00;99.90;;;;;;5078304;28;20234;-72
2023/05/26 05:16:22;;;;;;;10.82;4.10;;;19.00;99.90;;;;;;5088969;28;20220;-71
2023/05/26 05:19:11;;;;;;;7.25;4.05;;;19.10;99.90;;;;;;5070522;28;20226;-72
2023/05/26 05:22:06;;;;;;;7.80;4.38;;;19.10;99.90;;;;;;5069907;28;20227;-73
2023/05/26 05:24:56;;;;;;;8.18;3.97;;;19.30;99.90;;;;;;5078305;28;20706;-72
2023/05/26 05:27:45;;;;;;;11.45;4.53;;;19.40;99.90;;;;;;5075353;28;21271;-71
2023/05/26 05:30:36;;;;;;;7.88;4.18;;;19.70;99.90;;;;;;5076968;28;20308;-72
2023/05/26 05:33:27;;;;;;;7.80;4.05;;;20.10;99.90;;;;;;5072519;28;20311;-75
2023/05/26 05:36:16;;;;;;;8.23;4.05;;;20.50;99.90;;;;;;5076557;28;20220;-76
2023/05/26 05:39:05;;;;;;;8.18;4.18;;;20.20;99.90;;;;;;5083478;28;20722;-70
2023/05/26 05:41:54;;;;;;;11.27;4.30;;;20.20;99.90;;;;;;5081279;28;20223;-70
2023/05/26 05:44:44;;;;;;;8.85;4.47;;;19.90;99.90;;;;;;5082741;28;20227;-70
2023/05/26 05:47:34;;;;;;;12.23;4.28;;;19.70;99.90;;;;;;5075333;28;20280;-70
2023/05/26 05:50:26;;;;;;;8.13;4.15;;;19.80;99.90;;;;;;5082359;28;20231;-69
2023/05/26 05:53:15;;;;;;;10.73;4.40;;;19.70;99.90;;;;;;5076269;28;20306;-71
2023/05/26 05:56:05;;;;;;;10.80;4.22;;;19.60;99.90;;;;;;5086485;28;20562;-69
2023/05/26 05:58:55;;;;;;;11.70;4.63;;;19.60;99.90;;;;;;5076115;28;20235;-73
2023/05/26 06:01:45;;;;;;;14.77;4.80;;;19.80;99.90;;;;;;5075776;28;20307;-72
2023/05/26 06:04:36;;;;;;;11.63;4.68;;;20.00;99.90;;;;;;5077318;28;20254;-68
2023/05/26 06:07:25;;;;;;;12.32;4.78;;;20.20;99.90;;;;;;5080882;28;20217;-70
2023/05/26 06:10:14;;;;;;;12.43;5.30;;;20.40;99.90;;;;;;5086724;28;20218;-71
2023/05/26 06:13:03;;;;;;;11.20;4.75;;;20.50;99.90;;;;;;5083151;28;20229;-71
2023/05/26 06:15:52;;;;;;;11.07;5.25;;;20.20;99.90;;;;;;5079484;28;20255;-71
2023/05/26 06:18:42;;;;;;;7.43;4.63;;;20.20;99.90;;;;;;5085080;28;20308;-70
2023/05/26 06:21:33;;;;;;;9.10;4.47;;;20.40;99.90;;;;;;5082187;28;20302;-70
2023/05/26 06:24:25;;;;;;;9.88;4.47;;;20.80;99.90;;;;;;5084157;28;20223;-70
2023/05/26 06:27:15;;;;;;;9.60;4.57;;;20.90;99.90;;;;;;5081759;28;20586;-72
2023/05/26 06:30:06;;;;;;;12.50;5.13;;;21.00;99.90;;;;;;5071942;28;20246;-71
2023/05/26 06:32:58;;;;;;;12.55;6.07;;;21.10;99.90;;;;;;5074787;28;20216;-70
2023/05/26 06:35:47;;;;;;;11.80;5.20;;;21.10;99.90;;;;;;5079466;28;20223;-70
2023/05/26 06:38:37;;;;;;;13.80;5.63;;;21.00;99.90;;;;;;5082578;28;20245;-70
2023/05/26 06:41:28;;;;;;;17.92;6.45;;;21.10;99.90;;;;;;5083524;28;20711;-70
2023/05/26 06:44:18;;;;;;;11.48;5.45;;;21.20;99.90;;;;;;5076783;28;20310;-70
2023/05/26 06:47:08;;;;;;;13.55;6.32;;;21.20;99.90;;;;;;5080967;28;20217;-70
2023/05/26 06:50:02;;;;;;;13.43;5.95;;;21.30;99.90;;;;;;5061459;28;20667;-71
2023/05/26 06:52:52;;;;;;;17.77;5.90;;;21.40;99.90;;;;;;5080001;28;20269;-71
2023/05/26 06:55:42;;;;;;;13.15;6.90;;;21.50;99.90;;;;;;5063568;28;20437;-71
2023/05/26 06:58:32;;;;;;;13.90;6.13;;;21.60;99.90;;;;;;5081729;28;20243;-70
2023/05/26 07:01:21;;;;;;;13.32;5.60;;;21.70;99.90;;;;;;5071868;28;20243;-70
2023/05/26 07:04:11;;;;;;;11.30;5.50;;;21.90;99.90;;;;;;5107372;27;20236;-72
2023/05/26 07:07:02;;;;;;;13.05;5.53;;;21.70;99.70;;;;;;5079833;28;20367;-69
2023/05/26 07:09:51;;;;;;;11.95;6.30;;;22.00;99.80;;;;;;5076687;28;20239;-72
2023/05/26 07:12:42;;;;;;;8.75;5.55;;;22.10;99.70;;;;;;5081828;28;20216;-71
2023/05/26 07:15:57;;;;;;;11.93;6.00;;;22.40;99.70;;;;;;5079190;28;20535;-71
2023/05/26 07:18:47;;;;;;;14.65;5.57;;;22.70;99.60;;;;;;5083384;28;21058;-71
2023/05/26 07:21:35;;;;;;;17.33;6.30;;;22.80;99.10;;;;;;5076452;28;20302;-74
2023/05/26 07:24:26;;;;;;;10.85;5.43;;;23.10;98.70;;;;;;5080723;28;20216;-74
2023/05/26 07:27:15;;;;;;;9.68;5.22;;;23.50;99.10;;;;;;5083747;28;20212;-74
2023/05/26 07:30:07;;;;;;;11.27;5.60;;;23.70;97.50;;;;;;5083422;28;20298;-73
2023/05/26 07:33:07;;;;;;;13.57;5.53;;;23.70;98.30;;;;;;5076012;28;20408;-73
2023/05/26 07:35:56;;;;;;;11.57;5.72;;;24.10;97.50;;;;;;5083034;28;20219;-74
2023/05/26 07:38:45;;;;;;;11.18;5.70;;;24.20;96.10;;;;;;5073372;28;20226;-74
2023/05/26 07:41:36;;;;;;;11.27;5.57;;;24.50;95.50;;;;;;5081720;28;20219;-73
2023/05/26 07:44:24;;;;;;;10.00;6.10;;;24.90;95.20;;;;;;5081483;28;20227;-75
2023/05/26 07:47:15;;;;;;;11.05;6.05;;;25.10;95.60;;;;;;5092368;28;20217;-74
2023/05/26 07:50:04;;;;;;;10.05;5.70;;;25.60;93.90;;;;;;5082492;28;20227;-74
2023/05/26 07:52:53;;;;;;;9.52;5.43;;;26.00;94.70;;;;;;5076646;28;20219;-74
2023/05/26 07:55:43;;;;;;;12.93;5.85;;;26.40;94.30;;;;;;5090936;28;20232;-74
2023/05/26 07:58:32;;;;;;;9.98;5.40;;;26.60;92.70;;;;;;5081387;28;20322;-73
2023/05/26 08:01:21;;;;;;;10.10;5.50;;;26.80;92.70;;;;;;5080972;28;20219;-74
2023/05/26 08:04:12;;;;;;;10.98;5.57;;;26.60;91.50;;;;;;5080751;28;20272;-74
2023/05/26 08:07:01;;;;;;;9.80;5.50;;;26.90;92.70;;;;;;5079035;28;20706;-72
2023/05/26 08:09:52;;;;;;;8.65;5.43;;;27.30;92.00;;;;;;5084059;28;20295;-75
2023/05/26 08:12:41;;;;;;;9.77;5.63;;;26.90;90.40;;;;;;5096152;28;20220;-74
2023/05/26 08:15:30;;;;;;;9.27;5.85;;;26.80;90.70;;;;;;5069455;28;20304;-74
2023/05/26 08:18:18;;;;;;;9.95;5.45;;;26.40;91.20;;;;;;5079828;28;20239;-73
2023/05/26 08:21:09;;;;;;;11.20;5.90;;;26.90;92.00;;;;;;5080618;28;20228;-73
2023/05/26 08:23:58;;;;;;;11.45;6.03;;;25.80;92.30;;;;;;5076586;28;20274;-73
2023/05/26 08:26:47;;;;;;;12.75;6.13;;;26.30;91.80;;;;;;5077097;28;20219;-73
2023/05/26 08:29:35;;;;;;;11.15;5.78;;;26.40;92.90;;;;;;5084621;28;20790;-72
2023/05/26 08:32:24;;;;;;;13.65;5.78;;;25.90;92.20;;;;;;5080331;28;20222;-75
2023/05/26 08:35:14;;;;;;;8.95;6.10;;;26.60;91.90;;;;;;5080522;28;20250;-74
2023/05/26 08:38:04;;;;;;;11.15;6.25;;;27.10;91.90;;;;;;5073791;28;20340;-76
2023/05/26 08:40:57;;;;;;;11.55;6.53;;;27.20;91.60;;;;;;5081077;28;20260;-74
2023/05/26 08:43:51;;;;;;;11.48;6.40;;;26.90;90.20;;;;;;5088703;28;20227;-73
2023/05/26 08:46:57;;;;;;;9.75;7.20;;;27.40;90.90;;;;;;5095577;28;20231;-69
2023/05/26 08:49:50;;;;;;;8.63;6.05;;;27.70;91.10;;;;;;5075936;28;20231;-75
2023/05/26 08:52:41;;;;;;;7.88;6.18;;;27.70;89.60;;;;;;5082151;28;20215;-77
2023/05/26 08:55:51;;;;;;;9.57;6.65;;;28.10;90.00;;;;;;5082075;28;20663;-73
2023/05/26 08:58:43;;;;;;;10.30;6.28;;;27.10;85.70;;;;;;5079576;28;20281;-74
2023/05/26 09:01:32;;;;;;;9.80;6.07;;;27.60;89.50;;;;;;5076344;28;20235;-73
2023/05/26 09:04:21;;;;;;;13.20;6.22;;;28.20;85.00;;;;;;5079363;28;20224;-74
2023/05/26 09:07:10;;;;;;;8.35;6.00;;;27.30;87.30;;;;;;5075667;28;20222;-74
2023/05/26 09:10:23;;;;;;;9.45;5.75;;;27.40;88.70;;;;;;5083634;28;20290;-73
2023/05/26 09:13:14;;;;;;;8.60;5.50;;;26.70;87.30;;;;;;5107903;27;20246;-72
2023/05/26 09:16:03;;;;;;;15.20;6.57;;;26.30;88.10;;;;;;5112959;27;20230;-75
2023/05/26 09:19:04;;;;;;;11.60;6.07;;;26.80;88.30;;;;;;5081382;28;20218;-71
2023/05/26 09:21:54;;;;;;;10.55;5.60;;;27.20;87.20;;;;;;5083783;28;20227;-74
2023/05/26 09:24:45;;;;;;;7.70;4.95;;;27.40;85.40;;;;;;5108260;27;20223;-75
2023/05/26 09:27:36;;;;;;;9.65;5.50;;;28.90;84.80;;;;;;5085389;28;20219;-76
2023/05/26 09:30:29;;;;;;;11.60;5.32;;;28.40;83.00;;;;;;5086247;28;20239;-76
2023/05/26 09:33:19;;;;;;;8.20;5.32;;;28.10;84.50;;;;;;5087685;28;20211;-75
2023/05/26 09:36:08;;;;;;;10.57;5.40;;;28.80;83.70;;;;;;5086390;28;20347;-76
2023/05/26 09:38:57;;;;;;;11.07;5.93;;;29.90;79.90;;;;;;5085082;28;20288;-76
2023/05/26 09:41:47;;;;;;;14.80;5.85;;;28.90;78.50;;;;;;5084057;28;20262;-76
2023/05/26 09:44:36;;;;;;;8.10;5.22;;;29.00;78.20;;;;;;5090735;28;20234;-73
2023/05/26 09:47:32;;;;;;;18.67;6.43;;;28.90;80.70;;;;;;5100433;28;20594;-75
2023/05/26 09:50:21;;;;;;;11.82;5.22;;;28.30;80.10;;;;;;5088407;28;20220;-77
2023/05/26 09:53:11;;;;;;;7.63;5.35;;;30.50;76.90;;;;;;5078975;28;20238;-77
2023/05/26 09:56:02;;;;;;;6.68;5.18;;;31.10;75.00;;;;;;5085751;28;20218;-78
2023/05/26 09:58:54;;;;;;;8.63;4.97;;;30.50;76.00;;;;;;5083845;28;20706;-75
2023/05/26 10:01:48;;;;;;;9.80;5.25;;;30.70;73.80;;;;;;5083480;28;20227;-74
2023/05/26 10:04:41;;;;;;;6.78;5.00;;;30.70;71.90;;;;;;5081129;28;20223;-78
2023/05/26 10:07:32;;;;;;;7.15;4.88;;;31.70;72.60;;;;;;5081918;28;20713;-77
2023/05/26 10:10:21;;;;;;;9.93;5.28;;;33.00;69.70;;;;;;5084043;28;20779;-78
2023/05/26 10:13:10;;;;;;;9.32;4.78;;;33.60;66.70;;;;;;5084777;28;20409;-78
2023/05/26 10:15:59;;;;;;;9.48;4.43;;;33.30;65.90;;;;;;5076951;28;20864;-77
2023/05/26 10:18:50;;;;;;;7.53;4.80;;;34.60;65.40;;;;;;5083467;28;20703;-72
2023/05/26 10:21:47;;;;;;;11.73;4.97;;;35.70;62.50;;;;;;5080849;28;20250;-73
2023/05/26 10:24:41;;;;;;;8.85;4.38;;;32.80;64.20;;;;;;5073206;28;20225;-73
2023/05/26 10:27:34;;;;;;;7.78;4.78;;;33.30;66.30;;;;;;5082762;28;20242;-72
2023/05/26 10:30:24;;;;;;;10.68;5.13;;;35.10;60.50;;;;;;5073942;28;20223;-73
2023/05/26 10:33:15;;;;;;;7.18;4.63;;;36.10;58.50;;;;;;5067122;28;20230;-75
2023/05/26 10:36:08;;;;;;;10.70;4.60;;;37.20;58.80;;;;;;5085336;28;20284;-74
2023/05/26 10:38:58;;;;;;;13.32;4.60;;;37.90;57.50;;;;;;5081873;27;20214;-73
2023/05/26 10:41:49;;;;;;;6.05;3.85;;;38.30;55.70;;;;;;5077879;28;20318;-71
2023/05/26 10:44:44;;;;;;;8.25;4.35;;;38.90;52.40;;;;;;5080468;28;20254;-69
2023/05/26 10:47:33;;;;;;;9.23;3.85;;;39.30;53.30;;;;;;5084814;28;20318;-70
2023/05/26 10:50:22;;;;;;;9.32;4.15;;;39.40;50.60;;;;;;5082133;28;20229;-70
2023/05/26 10:53:20;;;;;;;8.32;4.57;;;39.90;51.20;;;;;;5082450;28;20253;-69
2023/05/26 10:56:12;;;;;;;9.40;4.70;;;39.90;48.30;;;;;;5084333;28;20297;-69
2023/05/26 10:59:04;;;;;;;7.45;4.68;;;40.40;49.30;;;;;;5080596;28;20230;-69
2023/05/26 11:01:54;;;;;;;6.55;4.25;;;40.10;49.40;;;;;;5081400;28;20218;-70
2023/05/26 11:04:44;;;;;;;13.35;4.57;;;40.20;48.80;;;;;;5084659;28;20251;-69
2023/05/26 11:07:33;;;;;;;8.52;4.95;;;40.70;48.00;;;;;;5081971;28;20238;-70
2023/05/26 11:10:21;;;;;;;6.57;4.03;;;40.80;48.20;;;;;;5083631;28;20300;-69
2023/05/26 11:13:12;;;;;;;8.77;4.22;;;41.10;47.30;;;;;;5077275;28;20252;-68
2023/05/26 11:16:18;;;;;;;5.18;3.50;;;40.40;46.90;;;;;;5081705;28;20219;-67
2023/05/26 11:19:08;;;;;;;6.75;4.10;;;40.00;46.70;;;;;;5079290;28;20206;-68
2023/05/26 11:21:58;;;;;;;8.43;4.18;;;40.10;46.10;;;;;;5078379;28;20641;-68
2023/05/26 11:24:49;;;;;;;10.15;4.32;;;39.20;45.10;;;;;;5091873;28;20272;-67
2023/05/26 11:27:45;;;;;;;9.07;3.85;;;41.30;46.00;;;;;;5075256;28;20227;-67
2023/05/26 11:30:35;;;;;;;9.38;3.67;;;41.90;44.90;;;;;;5075737;28;20246;-69
2023/05/26 11:33:24;;;;;;;10.07;4.25;;;42.70;44.50;;;;;;5082136;28;20283;-68
2023/05/26 11:36:15;;;;;;;7.90;4.22;;;43.80;43.20;;;;;;5074732;28;20641;-68
2023/05/26 11:39:04;;;;;;;6.63;3.45;;;43.80;42.60;;;;;;5070857;28;20219;-69
2023/05/26 11:41:53;;;;;;;11.18;5.00;;;43.10;40.70;;;;;;5081712;28;20230;-69
2023/05/26 11:44:45;;;;;;;16.48;3.97;;;44.20;41.60;;;;;;5080572;28;20219;-69
2023/05/26 11:47:35;;;;;;;6.53;3.45;;;44.50;40.70;;;;;;5082718;28;20227;-70
2023/05/26 11:50:24;;;;;;;8.23;4.40;;;45.20;40.10;;;;;;5071690;28;20215;-69
2023/05/26 11:53:13;;;;;;;7.22;3.65;;;45.60;40.20;;;;;;5081554;28;20839;-70
2023/05/26 11:56:07;;;;;;;8.68;4.15;;;46.50;39.90;;;;;;5081183;28;20805;-68
2023/05/26 11:58:56;;;;;;;5.68;3.83;;;46.30;39.20;;;;;;5061108;28;20289;-70
2023/05/26 12:01:45;;;;;;;8.75;3.78;;;45.40;38.30;;;;;;5073931;28;20227;-70
2023/05/26 12:04:36;;;;;;;9.20;3.80;;;45.00;39.10;;;;;;5076385;28;20799;-67
2023/05/26 12:07:28;;;;;;;8.95;3.50;;;44.40;39.40;;;;;;5075664;28;20262;-70
2023/05/26 12:10:17;;;;;;;8.32;3.55;;;44.10;39.80;;;;;;5076497;28;20372;-71
2023/05/26 12:13:06;;;;;;;14.25;4.03;;;44.90;38.80;;;;;;5080963;28;20332;-70
2023/05/26 12:15:55;;;;;;;10.82;3.80;;;44.20;37.80;;;;;;5077181;28;20333;-69
2023/05/26 12:18:45;;;;;;;8.18;4.13;;;45.00;39.60;;;;;;5080337;28;20223;-68
2023/05/26 12:21:42;;;;;;;7.22;3.60;;;45.90;38.20;;;;;;5081310;28;20256;-71
2023/05/26 12:24:33;;;;;;;12.70;3.92;;;47.30;37.00;;;;;;5083278;28;20219;-68
2023/05/26 12:27:22;;;;;;;7.25;3.25;;;48.20;36.10;;;;;;5081274;28;20226;-68
2023/05/26 12:30:18;;;;;;;7.50;3.63;;;47.80;37.40;;;;;;5076986;28;20227;-69
2023/05/26 12:33:07;;;;;;;6.97;3.40;;;48.10;36.70;;;;;;5110954;27;20764;-68
2023/05/26 12:35:56;;;;;;;7.68;3.47;;;48.30;35.70;;;;;;5081517;28;20312;-68
2023/05/26 12:38:47;;;;;;;5.35;3.67;;;47.50;35.40;;;;;;5083994;28;20634;-69
2023/05/26 12:41:36;;;;;;;7.80;4.20;;;45.70;36.20;;;;;;5082202;28;20238;-70
2023/05/26 12:44:25;;;;;;;9.23;3.42;;;42.80;37.40;;;;;;5084499;28;20697;-68
2023/05/26 12:47:14;;;;;;;6.07;3.30;;;39.20;39.20;;;;;;5069109;28;20222;-68
2023/05/26 12:50:04;;;;;;;10.50;3.33;;;35.90;42.40;;;;;;5075800;28;20211;-70
2023/05/26 12:52:53;;;;;;;7.93;3.00;;;33.50;44.40;;;;;;5072547;28;20222;-68
2023/05/26 12:55:43;;;;;;;6.00;3.15;;;31.70;47.40;;;;;;5081052;28;20264;-69
2023/05/26 12:58:32;;;;;;;12.30;3.90;;;30.40;48.40;;;;;;5079289;28;20238;-71
2023/05/26 13:01:21;;;;;;;9.80;3.75;;;29.60;51.30;;;;;;5077588;28;20230;-69
2023/05/26 13:04:10;;;;;;;7.97;3.38;;;29.30;50.50;;;;;;5076635;28;20218;-70
2023/05/26 13:07:00;;;;;;;7.18;3.78;;;28.90;51.10;;;;;;5077235;28;20211;-69
2023/05/26 13:09:48;;;;;;;6.88;3.90;;;28.70;52.50;;;;;;5079649;28;20218;-70
2023/05/26 13:12:41;;;;;;;8.70;3.55;;;28.60;52.40;;;;;;5076013;28;20219;-70
2023/05/26 13:15:31;;;;;;;6.25;3.13;;;28.40;52.40;;;;;;5080763;28;20230;-71
2023/05/26 13:18:20;;;;;;;8.02;3.80;;;27.90;51.20;;;;;;5080554;28;20279;-71
2023/05/26 13:21:09;;;;;;;6.78;3.30;;;27.70;53.50;;;;;;5081718;28;20345;-71
2023/05/26 13:23:58;;;;;;;9.30;3.38;;;27.50;54.10;;;;;;5084767;28;20241;-71
2023/05/26 13:26:47;;;;;;;6.63;3.30;;;27.50;53.70;;;;;;5071559;28;20230;-69
2023/05/26 13:29:37;;;;;;;7.55;3.25;;;26.80;52.90;;;;;;5081065;28;20223;-70
2023/05/26 13:32:26;;;;;;;8.85;3.53;;;26.00;54.50;;;;;;5082847;28;20264;-71
2023/05/26 13:35:16;;;;;;;4.93;3.13;;;25.70;56.20;;;;;;5080262;28;20302;-71
2023/05/26 13:38:06;;;;;;;10.10;3.33;;;25.80;57.90;;;;;;5081427;28;20288;-69
2023/05/26 13:40:55;;;;;;;10.65;3.70;;;26.10;57.70;;;;;;5070153;28;20238;-68
2023/05/26 13:43:45;;;;;;;14.80;3.53;;;26.30;58.50;;;;;;5079900;28;20234;-69
2023/05/26 13:46:37;;;;;;;7.88;3.00;;;26.40;58.30;;;;;;5073408;28;20223;-69
2023/05/26 13:49:26;;;;;;;7.10;2.75;;;26.30;58.50;;;;;;5079048;28;20225;-70
2023/05/26 13:52:14;;;;;;;6.00;3.20;;;26.20;59.20;;;;;;5075688;28;20215;-69
2023/05/26 13:55:04;;;;;;;6.57;4.35;;;26.00;59.90;;;;;;5077597;28;20234;-70
2023/05/26 13:57:53;;;;;;;10.68;3.60;;;26.10;61.40;;;;;;5081252;28;20382;-71
2023/05/26 14:00:42;;;;;;;6.78;3.10;;;25.90;60.10;;;;;;5075446;28;20893;-70
2023/05/26 14:03:33;;;;;;;11.65;3.70;;;25.30;60.70;;;;;;5072829;28;20741;-70
2023/05/26 14:06:22;;;;;;;7.63;3.42;;;25.30;62.00;;;;;;5094903;28;20219;-68
2023/05/26 14:09:10;;;;;;;8.68;3.38;;;25.50;62.90;;;;;;5083508;28;20764;-70
2023/05/26 14:11:59;;;;;;;8.85;4.35;;;25.50;62.50;;;;;;5085173;28;20737;-68
2023/05/26 14:14:48;;;;;;;7.22;3.65;;;25.40;62.80;;;;;;5068391;28;20962;-69
2023/05/26 14:17:37;;;;;;;10.27;3.33;;;25.50;63.50;;;;;;5082111;28;20230;-68
2023/05/26 14:20:27;;;;;;;12.63;3.20;;;25.50;64.00;;;;;;5082283;28;20239;-68
2023/05/26 14:23:36;;;;;;;7.20;3.00;;;25.30;62.80;;;;;;5082664;28;20233;-68
2023/05/26 14:26:26;;;;;;;7.63;3.65;;;25.30;63.80;;;;;;5085052;28;20227;-68
2023/05/26 14:29:15;;;;;;;7.50;3.40;;;25.30;63.40;;;;;;5084665;28;20223;-68
2023/05/26 14:32:04;;;;;;;8.02;3.40;;;25.10;64.10;;;;;;5085613;28;20339;-68
2023/05/26 14:34:53;;;;;;;7.70;3.75;;;25.20;63.60;;;;;;5078172;28;20289;-68
2023/05/26 14:37:43;;;;;;;13.30;4.00;;;25.20;65.00;;;;;;5083158;28;20292;-68
2023/05/26 14:40:32;;;;;;;9.35;3.08;;;25.20;64.10;;;;;;5083495;28;20749;-68
2023/05/26 14:43:21;;;;;;;9.43;3.55;;;25.10;64.10;;;;;;5069406;28;20228;-69
2023/05/26 14:46:10;;;;;;;6.40;3.60;;;25.00;64.00;;;;;;5081741;28;20281;-70